Time,TemperatureF,DewpointF,PressureIn,WindDirection,WindDirectionDegrees,WindSpeedMPH,WindSpeedGustMPH,Humidity,HourlyPrecipIn,Conditions,Clouds,dailyrainin,SoftwareType,DateUTC
2013-02-19 00:00:00,19.7,3.2,30.08,WSW,247,1.0,3.0,48,0.00,,,-99.99,WeatherLink 5.7,2013-02-19 05:00:00,
2013-02-19 00:05:00,19.5,3.0,30.08,WSW,247,1.0,3.0,48,0.00,,,-99.99,WeatherLink 5.7,2013-02-19 05:05:00,
2013-02-19 00:15:00,19.2,4.0,30.08,SW,225,1.0,2.0,51,0.00,,,-99.99,WeatherLink 5.7,2013-02-19 05:15:00,
2013-02-19 00:21:00,19.1,3.5,30.08,SW,225,1.0,3.0,50,0.00,,,-99.99,WeatherLink 5.7,2013-02-19 05:21:00,
2013-02-19 00:30:00,19.1,2.6,30.08,SW,225,1.0,3.0,48,0.00,,,-99.99,WeatherLink 5.7,2013-02-19 05:30:00,
2013-02-19 00:35:00,18.9,4.1,30.08,SW,225,1.0,2.0,52,0.00,,,-99.99,WeatherLink 5.7,2013-02-19 05:35:00,
2013-02-19 00:40:00,18.9,3.7,30.08,SW,225,0.0,2.0,51,0.00,,,-99.99,WeatherLink 5.7,2013-02-19 05:40:00,
2013-02-19 00:51:00,18.8,3.6,30.08,SW,225,1.0,3.0,51,0.00,,,-99.99,WeatherLink 5.7,2013-02-19 05:51:00,
2013-02-19 01:00:00,19.1,3.9,30.08,WSW,247,1.0,3.0,51,0.00,,,-99.99,WeatherLink 5.7,2013-02-19 06:00:00,
2013-02-19 01:11:00,19.4,3.8,30.08,WSW,247,2.0,3.0,50,0.00,,,-99.99,WeatherLink 5.7,2013-02-19 06:11:00,
2013-02-19 01:21:00,19.9,2.9,30.08,WSW,247,2.0,3.0,47,0.00,,,-99.99,WeatherLink 5.7,2013-02-19 06:21:00,
2013-02-19 01:30:00,20.3,2.8,30.09,WSW,247,2.0,5.0,46,0.00,,,-99.99,WeatherLink 5.7,2013-02-19 06:30:00,
2013-02-19 01:35:00,20.5,3.4,30.09,WSW,247,2.0,3.0,47,0.00,,,-99.99,WeatherLink 5.7,2013-02-19 06:35:00,
2013-02-19 01:46:00,21.0,3.0,30.08,WSW,247,1.0,3.0,45,0.00,,,-99.99,WeatherLink 5.7,2013-02-19 06:46:00,
2013-02-19 01:56:00,21.3,3.7,30.08,WSW,247,2.0,3.0,46,0.00,,,-99.99,WeatherLink 5.7,2013-02-19 06:56:00,
2013-02-19 02:06:00,21.4,3.3,30.09,WSW,247,1.0,3.0,45,0.00,,,-99.99,WeatherLink 5.7,2013-02-19 07:06:00,
2013-02-19 02:16:00,21.8,3.2,30.09,WSW,247,2.0,3.0,44,0.00,,,-99.99,WeatherLink 5.7,2013-02-19 07:16:00,
2013-02-19 02:25:00,21.9,2.8,30.09,WSW,247,0.0,2.0,43,0.00,,,-99.99,WeatherLink 5.7,2013-02-19 07:25:00,
2013-02-19 02:36:00,21.9,2.3,30.09,WSW,247,1.0,2.0,42,0.00,,,-99.99,WeatherLink 5.7,2013-02-19 07:36:00,
2013-02-19 02:45:00,21.6,3.5,30.08,WSW,247,1.0,2.0,45,0.00,,,-99.99,WeatherLink 5.7,2013-02-19 07:45:00,
2013-02-19 02:55:00,21.1,4.4,30.08,WSW,247,1.0,2.0,48,0.00,,,-99.99,WeatherLink 5.7,2013-02-19 07:55:00,
2013-02-19 03:01:00,21.0,3.4,30.08,WSW,247,1.0,3.0,46,0.00,,,-99.99,WeatherLink 5.7,2013-02-19 08:01:00,
2013-02-19 03:06:00,20.8,4.2,30.08,WSW,247,0.0,2.0,48,0.00,,,-99.99,WeatherLink 5.7,2013-02-19 08:06:00,
2013-02-19 03:15:00,20.5,5.2,30.08,WSW,247,1.0,2.0,51,0.00,,,-99.99,WeatherLink 5.7,2013-02-19 08:15:00,
2013-02-19 03:25:00,20.5,5.6,30.08,WSW,247,1.0,3.0,52,0.00,,,-99.99,WeatherLink 5.7,2013-02-19 08:25:00,
2013-02-19 03:35:00,21.1,7.0,30.07,WSW,247,1.0,4.0,54,0.00,,,-99.99,WeatherLink 5.7,2013-02-19 08:35:00,
2013-02-19 03:40:00,21.4,6.9,30.07,WSW,247,1.0,2.0,53,0.00,,,-99.99,WeatherLink 5.7,2013-02-19 08:40:00,
2013-02-19 03:51:00,21.9,7.8,30.07,North,-999,0.0,0.0,54,0.00,,,-99.99,WeatherLink 5.7,2013-02-19 08:51:00,
2013-02-19 04:01:00,22.2,7.2,30.07,North,-999,0.0,0.0,52,0.00,,,-99.99,WeatherLink 5.7,2013-02-19 09:01:00,
2013-02-19 04:10:00,22.4,5.2,30.07,North,-999,0.0,0.0,47,0.00,,,-99.99,WeatherLink 5.7,2013-02-19 09:10:00,
2013-02-19 04:15:00,22.4,4.7,30.05,North,-999,0.0,0.0,46,0.00,,,-99.99,WeatherLink 5.7,2013-02-19 09:15:00,
2013-02-19 04:21:00,22.4,4.7,30.05,North,-999,0.0,0.0,46,0.00,,,-99.99,WeatherLink 5.7,2013-02-19 09:21:00,
2013-02-19 04:30:00,22.5,7.5,30.06,North,-999,0.0,0.0,52,0.00,,,-99.99,WeatherLink 5.7,2013-02-19 09:30:00,
2013-02-19 04:35:00,22.5,8.3,30.06,North,-999,0.0,0.0,54,0.00,,,-99.99,WeatherLink 5.7,2013-02-19 09:35:00,
2013-02-19 04:45:00,22.5,10.3,30.06,North,-999,0.0,0.0,59,0.00,,,-99.99,WeatherLink 5.7,2013-02-19 09:45:00,
2013-02-19 04:51:00,22.5,7.9,30.06,North,-999,0.0,0.0,53,0.00,,,-99.99,WeatherLink 5.7,2013-02-19 09:51:00,
2013-02-19 05:00:00,22.9,8.3,30.05,North,-999,0.0,0.0,53,0.00,,,-99.99,WeatherLink 5.7,2013-02-19 10:00:00,
2013-02-19 05:10:00,23.3,10.3,30.05,North,-999,0.0,0.0,57,0.00,,,-99.99,WeatherLink 5.7,2013-02-19 10:10:00,
2013-02-19 05:16:00,23.5,12.4,30.05,North,-999,0.0,0.0,62,0.00,,,-99.99,WeatherLink 5.7,2013-02-19 10:16:00,
2013-02-19 05:25:00,23.8,13.0,30.05,WSW,247,1.0,2.0,63,0.00,,,-99.99,WeatherLink 5.7,2013-02-19 10:25:00,
2013-02-19 05:30:00,23.8,12.3,30.05,WSW,247,0.0,1.0,61,0.00,,,-99.99,WeatherLink 5.7,2013-02-19 10:30:00,
2013-02-19 05:36:00,23.8,12.3,30.05,North,-999,0.0,0.0,61,0.00,,,-99.99,WeatherLink 5.7,2013-02-19 10:36:00,
2013-02-19 05:41:00,23.9,11.6,30.05,North,-999,0.0,0.0,59,0.00,,,-99.99,WeatherLink 5.7,2013-02-19 10:41:00,
2013-02-19 05:50:00,24.2,11.1,30.05,North,-999,0.0,0.0,57,0.00,,,-99.99,WeatherLink 5.7,2013-02-19 10:50:00,
2013-02-19 06:01:00,24.5,11.4,30.05,WSW,247,0.0,2.0,57,0.00,,,-99.99,WeatherLink 5.7,2013-02-19 11:01:00,
2013-02-19 06:10:00,24.7,11.2,30.05,WSW,247,0.0,2.0,56,0.00,,,-99.99,WeatherLink 5.7,2013-02-19 11:10:00,
2013-02-19 06:15:00,24.8,10.1,30.05,WSW,247,1.0,2.0,53,0.00,,,-99.99,WeatherLink 5.7,2013-02-19 11:15:00,
2013-02-19 06:20:00,25.0,10.3,30.05,WSW,247,0.0,1.0,53,0.00,,,-99.99,WeatherLink 5.7,2013-02-19 11:20:00,
2013-02-19 06:30:00,25.3,9.7,30.05,WSW,247,1.0,2.0,51,0.00,,,-99.99,WeatherLink 5.7,2013-02-19 11:30:00,
2013-02-19 06:41:00,25.4,9.8,30.05,WSW,247,1.0,2.0,51,0.00,,,-99.99,WeatherLink 5.7,2013-02-19 11:41:00,
2013-02-19 06:51:00,25.7,10.0,30.04,SSW,202,0.0,2.0,51,0.00,,,-99.99,WeatherLink 5.7,2013-02-19 11:51:00,
2013-02-19 07:00:00,25.8,9.7,30.04,SSW,202,0.0,2.0,50,0.00,,,-99.99,WeatherLink 5.7,2013-02-19 12:00:00,
2013-02-19 07:11:00,26.0,10.3,30.04,North,-999,0.0,0.0,51,0.00,,,-99.99,WeatherLink 5.7,2013-02-19 12:11:00,
2013-02-19 07:16:00,26.1,10.4,30.04,SSW,202,0.0,2.0,51,0.00,,,-99.99,WeatherLink 5.7,2013-02-19 12:16:00,
2013-02-19 07:30:00,26.3,10.6,30.04,North,-999,0.0,0.0,51,0.00,,,-99.99,WeatherLink 5.7,2013-02-19 12:30:00,
2013-02-19 07:35:00,27.0,10.8,30.04,SSW,202,1.0,3.0,50,0.00,,,-99.99,WeatherLink 5.7,2013-02-19 12:35:00,
2013-02-19 07:45:00,27.3,9.7,30.03,SSW,202,0.0,2.0,47,0.00,,,-99.99,WeatherLink 5.7,2013-02-19 12:45:00,
2013-02-19 07:56:00,28.2,10.0,30.03,SSW,202,0.0,2.0,46,0.00,,,-99.99,WeatherLink 5.7,2013-02-19 12:56:00,
2013-02-19 08:06:00,29.3,9.0,30.02,South,180,2.0,5.0,42,0.00,,,-99.99,WeatherLink 5.7,2013-02-19 13:06:00,
2013-02-19 08:16:00,29.8,9.5,30.02,SSW,202,2.0,6.0,42,0.00,,,-99.99,WeatherLink 5.7,2013-02-19 13:16:00,
2013-02-19 08:21:00,31.0,10.0,30.03,SW,225,2.0,5.0,41,0.00,,,-99.99,WeatherLink 5.7,2013-02-19 13:21:00,
2013-02-19 08:25:00,31.8,9.0,30.03,SSW,202,2.0,5.0,38,0.00,,,-99.99,WeatherLink 5.7,2013-02-19 13:25:00,
2013-02-19 08:35:00,32.8,9.9,30.02,SSW,202,3.0,7.0,38,0.00,,,-99.99,WeatherLink 5.7,2013-02-19 13:35:00,
2013-02-19 08:46:00,34.1,10.5,30.02,SSW,202,2.0,6.0,37,0.00,,,-99.99,WeatherLink 5.7,2013-02-19 13:46:00,
2013-02-19 08:55:00,36.6,11.5,30.02,SSW,202,3.0,6.0,35,0.00,,,-99.99,WeatherLink 5.7,2013-02-19 13:55:00,
2013-02-19 09:01:00,37.2,10.0,30.02,SSW,202,3.0,6.0,32,0.00,,,-99.99,WeatherLink 5.7,2013-02-19 14:01:00,
2013-02-19 09:10:00,36.8,10.3,30.02,SSW,202,4.0,7.0,33,0.00,,,-99.99,WeatherLink 5.7,2013-02-19 14:10:00,
2013-02-19 09:15:00,36.6,10.8,30.01,SSW,202,3.0,6.0,34,0.00,,,-99.99,WeatherLink 5.7,2013-02-19 14:15:00,
2013-02-19 09:21:00,36.3,10.6,30.01,SE,135,3.0,8.0,34,0.00,,,-99.99,WeatherLink 5.7,2013-02-19 14:21:00,
2013-02-19 09:30:00,37.6,11.7,30.01,South,180,3.0,6.0,34,0.00,,,-99.99,WeatherLink 5.7,2013-02-19 14:30:00,
2013-02-19 09:40:00,38.6,15.7,30.01,SSW,202,5.0,8.0,39,0.00,,,-99.99,WeatherLink 5.7,2013-02-19 14:40:00,
2013-02-19 09:46:00,40.3,14.8,30.00,WSW,247,1.0,5.0,35,0.00,,,-99.99,WeatherLink 5.7,2013-02-19 14:46:00,
2013-02-19 09:50:00,40.8,17.7,30.00,SW,225,4.0,9.0,39,0.00,,,-99.99,WeatherLink 5.7,2013-02-19 14:50:00,
2013-02-19 10:01:00,41.1,18.6,30.00,SSW,202,4.0,12.0,40,0.00,,,-99.99,WeatherLink 5.7,2013-02-19 15:01:00,
2013-02-19 10:06:00,40.3,18.4,30.00,South,180,4.0,9.0,41,0.00,,,-99.99,WeatherLink 5.7,2013-02-19 15:06:00,
2013-02-19 10:21:00,40.9,20.1,29.99,SW,225,2.0,6.0,43,0.00,,,-99.99,WeatherLink 5.7,2013-02-19 15:21:00,
2013-02-19 10:30:00,42.2,21.8,29.99,SW,225,3.0,10.0,44,0.00,,,-99.99,WeatherLink 5.7,2013-02-19 15:30:00,
2013-02-19 10:41:00,42.1,22.3,29.99,SSW,202,3.0,6.0,45,0.00,,,-99.99,WeatherLink 5.7,2013-02-19 15:41:00,
2013-02-19 10:51:00,42.1,22.3,29.97,SSW,202,2.0,6.0,45,0.00,,,-99.99,WeatherLink 5.7,2013-02-19 15:51:00,
2013-02-19 11:00:00,41.8,22.5,29.98,SSW,202,2.0,6.0,46,0.00,,,-99.99,WeatherLink 5.7,2013-02-19 16:00:00,
2013-02-19 11:06:00,42.1,22.8,29.98,SSW,202,3.0,11.0,46,0.00,,,-99.99,WeatherLink 5.7,2013-02-19 16:06:00,
2013-02-19 11:11:00,42.2,21.8,29.98,South,180,2.0,7.0,44,0.00,,,-99.99,WeatherLink 5.7,2013-02-19 16:11:00,
2013-02-19 11:16:00,42.2,22.4,29.97,SSW,202,3.0,8.0,45,0.00,,,-99.99,WeatherLink 5.7,2013-02-19 16:16:00,
2013-02-19 11:26:00,42.1,21.7,29.97,SSW,202,5.0,10.0,44,0.00,,,-99.99,WeatherLink 5.7,2013-02-19 16:26:00,
2013-02-19 11:35:00,42.1,22.3,29.96,SSW,202,5.0,10.0,45,0.00,,,-99.99,WeatherLink 5.7,2013-02-19 16:35:00,
2013-02-19 11:46:00,41.8,21.5,29.94,SE,135,3.0,7.0,44,0.00,,,-99.99,WeatherLink 5.7,2013-02-19 16:46:00,
2013-02-19 11:55:00,41.8,23.0,29.94,SSW,202,3.0,7.0,47,0.00,,,-99.99,WeatherLink 5.7,2013-02-19 16:55:00,
2013-02-19 12:05:00,41.9,23.1,29.93,South,180,4.0,8.0,47,0.00,,,-99.99,WeatherLink 5.7,2013-02-19 17:05:00,
2013-02-19 12:16:00,42.5,24.2,29.93,SSW,202,3.0,7.0,48,0.00,,,-99.99,WeatherLink 5.7,2013-02-19 17:16:00,
2013-02-19 12:21:00,43.1,23.7,29.93,South,180,2.0,7.0,46,0.00,,,-99.99,WeatherLink 5.7,2013-02-19 17:21:00,
2013-02-19 12:30:00,43.2,24.8,29.91,SSE,157,4.0,10.0,48,0.00,,,-99.99,WeatherLink 5.7,2013-02-19 17:30:00,
2013-02-19 12:35:00,43.3,24.9,29.91,SSW,202,3.0,7.0,48,0.00,,,-99.99,WeatherLink 5.7,2013-02-19 17:35:00,
2013-02-19 12:45:00,43.5,25.6,29.90,SSE,157,3.0,8.0,49,0.00,,,-99.99,WeatherLink 5.7,2013-02-19 17:45:00,
2013-02-19 12:55:00,44.3,25.8,29.90,SE,135,4.0,8.0,48,0.00,,,-99.99,WeatherLink 5.7,2013-02-19 17:55:00,
2013-02-19 13:05:00,45.2,26.1,29.88,South,180,3.0,10.0,47,0.00,,,-99.99,WeatherLink 5.7,2013-02-19 18:05:00,
2013-02-19 13:10:00,45.2,26.7,29.88,SSE,157,4.0,8.0,48,0.00,,,-99.99,WeatherLink 5.7,2013-02-19 18:10:00,
2013-02-19 13:16:00,44.6,26.1,29.87,ESE,112,3.0,6.0,48,0.00,,,-99.99,WeatherLink 5.7,2013-02-19 18:16:00,
2013-02-19 13:26:00,44.3,25.8,29.87,SE,135,4.0,7.0,48,0.00,,,-99.99,WeatherLink 5.7,2013-02-19 18:26:00,
2013-02-19 13:36:00,44.9,26.4,29.87,SSE,157,2.0,6.0,48,0.00,,,-99.99,WeatherLink 5.7,2013-02-19 18:36:00,
2013-02-19 13:46:00,45.1,27.1,29.86,SSE,157,2.0,7.0,49,0.00,,,-99.99,WeatherLink 5.7,2013-02-19 18:46:00,
2013-02-19 13:56:00,45.2,27.2,29.86,SE,135,3.0,7.0,49,0.00,,,-99.99,WeatherLink 5.7,2013-02-19 18:56:00,
2013-02-19 14:06:00,45.2,27.2,29.85,SSE,157,2.0,6.0,49,0.00,,,-99.99,WeatherLink 5.7,2013-02-19 19:06:00,
2013-02-19 14:16:00,45.7,28.1,29.84,SE,135,3.0,6.0,50,0.00,,,-99.99,WeatherLink 5.7,2013-02-19 19:16:00,
2013-02-19 14:25:00,45.8,28.2,29.84,SE,135,3.0,10.0,50,0.00,,,-99.99,WeatherLink 5.7,2013-02-19 19:25:00,
2013-02-19 14:36:00,45.7,28.1,29.83,SE,135,2.0,4.0,50,0.00,,,-99.99,WeatherLink 5.7,2013-02-19 19:36:00,
2013-02-19 14:46:00,45.2,28.6,29.82,SE,135,2.0,6.0,52,0.00,,,-99.99,WeatherLink 5.7,2013-02-19 19:46:00,
2013-02-19 14:55:00,45.5,28.9,29.82,SE,135,1.0,5.0,52,0.00,,,-99.99,WeatherLink 5.7,2013-02-19 19:55:00,
2013-02-19 15:05:00,45.8,28.7,29.81,SSE,157,2.0,6.0,51,0.00,,,-99.99,WeatherLink 5.7,2013-02-19 20:05:00,
2013-02-19 15:16:00,46.1,28.5,29.80,SSE,157,5.0,10.0,50,0.00,,,-99.99,WeatherLink 5.7,2013-02-19 20:16:00,
2013-02-19 15:25:00,46.4,28.3,29.80,SSE,157,2.0,6.0,49,0.00,,,-99.99,WeatherLink 5.7,2013-02-19 20:25:00,
2013-02-19 15:31:00,46.5,28.8,29.78,SSE,157,5.0,10.0,50,0.00,,,-99.99,WeatherLink 5.7,2013-02-19 20:31:00,
2013-02-19 15:36:00,46.5,29.3,29.78,South,180,5.0,8.0,51,0.00,,,-99.99,WeatherLink 5.7,2013-02-19 20:36:00,
2013-02-19 15:45:00,46.4,29.7,29.77,SSW,202,4.0,14.0,52,0.00,,,-99.99,WeatherLink 5.7,2013-02-19 20:45:00,
2013-02-19 15:55:00,46.4,30.2,29.77,SSW,202,4.0,9.0,53,0.00,,,-99.99,WeatherLink 5.7,2013-02-19 20:55:00,
2013-02-19 16:05:00,46.2,30.0,29.76,SSE,157,2.0,11.0,53,0.00,,,-99.99,WeatherLink 5.7,2013-02-19 21:05:00,
2013-02-19 16:15:00,46.1,31.7,29.75,SSW,202,6.0,12.0,57,0.00,,,-99.99,WeatherLink 5.7,2013-02-19 21:15:00,
2013-02-19 16:25:00,45.4,33.5,29.75,SSE,157,6.0,17.0,63,0.00,,,-99.99,WeatherLink 5.7,2013-02-19 21:25:00,
2013-02-19 16:36:00,44.8,33.7,29.75,South,180,6.0,11.0,65,0.00,,,-99.99,WeatherLink 5.7,2013-02-19 21:36:00,
2013-02-19 16:45:00,43.8,34.6,29.75,South,180,5.0,8.0,70,0.00,,,-99.99,WeatherLink 5.7,2013-02-19 21:45:00,
2013-02-19 16:51:00,43.5,34.7,29.75,SSW,202,3.0,7.0,71,0.00,,,-99.99,WeatherLink 5.7,2013-02-19 21:51:00,
2013-02-19 17:00:00,43.1,35.4,29.75,South,180,3.0,7.0,74,0.00,,,-99.99,WeatherLink 5.7,2013-02-19 22:00:00,
2013-02-19 17:06:00,42.9,35.5,29.75,SSE,157,3.0,6.0,75,0.00,,,-99.99,WeatherLink 5.7,2013-02-19 22:06:00,
2013-02-19 17:11:00,42.8,35.8,29.75,SSE,157,3.0,6.0,76,0.00,,,-99.99,WeatherLink 5.7,2013-02-19 22:11:00,
2013-02-19 17:21:00,42.3,35.6,29.74,South,180,2.0,6.0,77,0.00,,,-99.99,WeatherLink 5.7,2013-02-19 22:21:00,
2013-02-19 17:30:00,41.9,36.2,29.72,SE,135,2.0,7.0,80,0.00,,,-99.99,WeatherLink 5.7,2013-02-19 22:30:00,
2013-02-19 17:36:00,41.6,36.2,29.72,SE,135,1.0,5.0,81,0.00,,,-99.99,WeatherLink 5.7,2013-02-19 22:36:00,
2013-02-19 17:45:00,41.2,36.7,29.71,SSE,157,2.0,6.0,84,0.00,,,-99.99,WeatherLink 5.7,2013-02-19 22:45:00,
2013-02-19 17:56:00,41.1,37.2,29.71,SSE,157,1.0,4.0,86,0.00,,,-99.99,WeatherLink 5.7,2013-02-19 22:56:00,
2013-02-19 18:05:00,40.9,37.6,29.71,SSE,157,0.0,3.0,88,0.00,,,-99.99,WeatherLink 5.7,2013-02-19 23:05:00,
2013-02-19 18:21:00,40.9,37.9,29.70,SSE,157,1.0,3.0,89,0.00,,,-99.99,WeatherLink 5.7,2013-02-19 23:21:00,
2013-02-19 18:31:00,40.6,38.2,29.68,SSE,157,1.0,3.0,91,0.00,,,-99.99,WeatherLink 5.7,2013-02-19 23:31:00,
2013-02-19 18:36:00,40.6,38.5,29.68,North,-999,0.0,0.0,92,0.00,,,-99.99,WeatherLink 5.7,2013-02-19 23:36:00,
2013-02-19 18:41:00,40.6,38.5,29.68,SSE,157,1.0,2.0,92,0.00,,,-99.99,WeatherLink 5.7,2013-02-19 23:41:00,
2013-02-19 18:50:00,40.5,38.6,29.68,SE,135,1.0,3.0,93,0.00,,,-99.99,WeatherLink 5.7,2013-02-19 23:50:00,
2013-02-19 18:55:00,40.3,38.4,29.68,SE,135,1.0,5.0,93,0.00,,,-99.99,WeatherLink 5.7,2013-02-19 23:55:00,
2013-02-19 19:06:00,40.5,38.9,29.66,SE,135,1.0,3.0,94,0.00,,,-99.99,WeatherLink 5.7,2013-02-20 00:06:00,
2013-02-19 19:16:00,40.5,39.2,29.65,SE,135,1.0,6.0,95,0.00,,,-99.99,WeatherLink 5.7,2013-02-20 00:16:00,
2013-02-19 19:21:00,40.6,39.3,29.65,SE,135,1.0,7.0,95,0.00,,,-99.99,WeatherLink 5.7,2013-02-20 00:21:00,
2013-02-19 19:30:00,40.6,39.3,29.63,SSE,157,3.0,7.0,95,0.00,,,-99.99,WeatherLink 5.7,2013-02-20 00:30:00,
2013-02-19 19:40:00,40.6,39.5,29.63,South,180,3.0,8.0,96,0.00,,,-99.99,WeatherLink 5.7,2013-02-20 00:40:00,
2013-02-19 19:45:00,40.8,39.7,29.62,SE,135,2.0,6.0,96,0.00,,,-99.99,WeatherLink 5.7,2013-02-20 00:45:00,
2013-02-19 19:55:00,40.9,39.8,29.62,SE,135,1.0,3.0,96,0.00,,,-99.99,WeatherLink 5.7,2013-02-20 00:55:00,
2013-02-19 20:06:00,41.1,40.0,29.61,ESE,112,2.0,5.0,96,0.00,,,-99.99,WeatherLink 5.7,2013-02-20 01:06:00,
2013-02-19 20:15:00,41.2,40.1,29.59,SE,135,2.0,8.0,96,0.00,,,-99.99,WeatherLink 5.7,2013-02-20 01:15:00,
2013-02-19 20:21:00,41.2,40.1,29.59,ESE,112,1.0,5.0,96,0.00,,,-99.99,WeatherLink 5.7,2013-02-20 01:21:00,
2013-02-19 20:26:00,41.5,40.7,29.59,SSE,157,2.0,8.0,97,0.00,,,-99.99,WeatherLink 5.7,2013-02-20 01:26:00,
2013-02-19 20:35:00,41.9,41.1,29.58,South,180,2.0,6.0,97,0.00,,,-99.99,WeatherLink 5.7,2013-02-20 01:35:00,
2013-02-19 20:40:00,41.9,41.1,29.58,South,180,1.0,5.0,97,0.00,,,-99.99,WeatherLink 5.7,2013-02-20 01:40:00,
2013-02-19 20:45:00,41.9,41.1,29.57,South,180,0.0,2.0,97,0.00,,,-99.99,WeatherLink 5.7,2013-02-20 01:45:00,
2013-02-19 20:50:00,42.1,41.3,29.57,South,180,1.0,5.0,97,0.00,,,-99.99,WeatherLink 5.7,2013-02-20 01:50:00,
2013-02-19 21:01:00,42.1,41.3,29.57,WSW,247,1.0,3.0,97,0.00,,,-99.99,WeatherLink 5.7,2013-02-20 02:01:00,
2013-02-19 21:11:00,41.6,40.8,29.56,WSW,247,1.0,3.0,97,0.00,,,-99.99,WeatherLink 5.7,2013-02-20 02:11:00,
2013-02-19 21:21:00,40.8,39.7,29.54,NE,45,0.0,1.0,96,0.00,,,-99.99,WeatherLink 5.7,2013-02-20 02:21:00,
2013-02-19 21:30:00,40.8,40.0,29.55,North,-999,0.0,0.0,97,0.00,,,-99.99,WeatherLink 5.7,2013-02-20 02:30:00,
2013-02-19 21:36:00,40.8,39.7,29.55,North,-999,0.0,0.0,96,0.00,,,-99.99,WeatherLink 5.7,2013-02-20 02:36:00,
2013-02-19 21:45:00,40.8,40.0,29.55,North,-999,0.0,0.0,97,0.00,,,-99.99,WeatherLink 5.7,2013-02-20 02:45:00,
2013-02-19 21:50:00,40.8,40.0,29.54,North,-999,0.0,0.0,97,0.00,,,-99.99,WeatherLink 5.7,2013-02-20 02:50:00,
2013-02-19 21:55:00,40.8,40.0,29.54,North,-999,0.0,0.0,97,0.00,,,-99.99,WeatherLink 5.7,2013-02-20 02:55:00,
2013-02-19 22:01:00,40.8,40.0,29.54,North,-999,0.0,0.0,97,0.00,,,-99.99,WeatherLink 5.7,2013-02-20 03:01:00,
2013-02-19 22:05:00,40.6,39.8,29.54,North,-999,0.0,0.0,97,0.00,,,-99.99,WeatherLink 5.7,2013-02-20 03:05:00,
2013-02-19 22:10:00,40.6,39.8,29.54,North,-999,0.0,0.0,97,0.00,,,-99.99,WeatherLink 5.7,2013-02-20 03:10:00,
2013-02-19 22:15:00,40.6,39.8,29.53,North,-999,0.0,0.0,97,0.00,,,-99.99,WeatherLink 5.7,2013-02-20 03:15:00,
2013-02-19 22:26:00,40.6,39.8,29.53,North,-999,0.0,0.0,97,0.00,,,-99.99,WeatherLink 5.7,2013-02-20 03:26:00,
2013-02-19 22:36:00,40.3,39.5,29.53,North,-999,0.0,0.0,97,0.00,,,-99.99,WeatherLink 5.7,2013-02-20 03:36:00,
2013-02-19 22:46:00,40.3,39.5,29.51,North,-999,0.0,0.0,97,0.00,,,-99.99,WeatherLink 5.7,2013-02-20 03:46:00,
2013-02-19 22:51:00,39.9,38.9,29.51,North,-999,0.0,0.0,96,0.00,,,-99.99,WeatherLink 5.7,2013-02-20 03:51:00,
2013-02-19 23:01:00,39.8,39.0,29.50,North,-999,0.0,0.0,97,0.00,,,-99.99,WeatherLink 5.7,2013-02-20 04:01:00,
2013-02-19 23:10:00,39.6,38.6,29.50,North,-999,0.0,0.0,96,0.00,,,-99.99,WeatherLink 5.7,2013-02-20 04:10:00,
2013-02-19 23:20:00,39.3,38.3,29.50,North,-999,0.0,0.0,96,0.00,,,-99.99,WeatherLink 5.7,2013-02-20 04:20:00,
2013-02-19 23:25:00,39.2,38.2,29.50,North,-999,0.0,0.0,96,0.00,,,-99.99,WeatherLink 5.7,2013-02-20 04:25:00,
2013-02-19 23:35:00,39.3,38.5,29.49,South,180,1.0,2.0,97,0.00,,,-99.99,WeatherLink 5.7,2013-02-20 04:35:00,
2013-02-19 23:45:00,39.5,38.7,29.50,North,-999,0.0,0.0,97,0.00,,,-99.99,WeatherLink 5.7,2013-02-20 04:45:00,
2013-02-19 23:55:00,39.3,38.5,29.50,North,-999,0.0,0.0,97,0.00,,,-99.99,WeatherLink 5.7,2013-02-20 04:55:00,